createdAt,value
2018-09-17T00:03:31.755Z,9.13
2018-09-17T00:07:34.618Z,9.10
2018-09-17T00:11:37.936Z,9.80
2018-09-17T00:15:40.804Z,9.63
2018-09-17T00:19:43.718Z,11.63
2018-09-17T00:23:47.039Z,9.70
2018-09-17T00:27:49.956Z,9.73
2018-09-17T00:31:52.844Z,10.67
2018-09-17T00:35:55.774Z,9.10
2018-09-17T00:39:58.864Z,10.07
2018-09-17T00:44:01.775Z,10.07
2018-09-17T00:48:04.702Z,9.07
2018-09-17T00:52:07.849Z,10.87
2018-09-17T00:56:10.716Z,11.07
2018-09-17T01:00:13.845Z,10.67
2018-09-17T01:04:16.915Z,11.20
2018-09-17T01:08:19.848Z,11.03
2018-09-17T01:12:22.711Z,10.87
2018-09-17T01:16:25.645Z,10.10
2018-09-17T01:20:28.716Z,13.10
2018-09-17T01:24:32.100Z,9.13
2018-09-17T01:28:35.187Z,10.80
2018-09-17T01:32:38.114Z,9.63
2018-09-17T01:36:40.978Z,8.37
2018-09-17T01:40:44.147Z,7.93
2018-09-17T01:44:46.999Z,8.00
2018-09-17T01:48:50.243Z,10.57
2018-09-17T01:52:53.099Z,10.90
2018-09-17T01:56:56.034Z,11.50
2018-09-17T02:00:58.895Z,11.27
2018-09-17T02:05:01.798Z,12.37
2018-09-17T02:09:05.637Z,11.63
2018-09-17T02:13:08.487Z,11.87
2018-09-17T02:17:11.587Z,12.97
2018-09-17T02:21:14.610Z,12.03
2018-09-17T02:25:17.827Z,11.23
2018-09-17T02:29:20.755Z,12.00
2018-09-17T02:33:23.703Z,12.20
2018-09-17T02:37:26.829Z,11.87
2018-09-17T02:41:29.715Z,10.87
2018-09-17T02:45:32.646Z,10.37
2018-09-17T02:49:35.745Z,11.50
2018-09-17T02:53:39.015Z,9.70
2018-09-17T02:57:41.766Z,10.70
2018-09-17T03:01:44.715Z,12.17
2018-09-17T03:05:47.792Z,10.53
2018-09-17T03:09:50.940Z,10.83
2018-09-17T03:13:54.027Z,12.10
2018-09-17T03:17:56.957Z,12.40
2018-09-17T03:21:59.833Z,14.50
2018-09-17T03:26:02.931Z,13.23
2018-09-17T03:30:05.812Z,13.23
2018-09-17T03:34:08.935Z,12.40
2018-09-17T03:38:22.510Z,12.43
2018-09-17T03:42:25.952Z,12.87
2018-09-17T03:46:28.833Z,12.73
2018-09-17T03:50:31.951Z,13.03
2018-09-17T03:54:34.836Z,13.50
2018-09-17T03:58:37.971Z,11.80
2018-09-17T04:02:41.060Z,11.20
2018-09-17T04:06:44.052Z,12.37
2018-09-17T04:10:47.151Z,11.47
2018-09-17T04:14:50.071Z,12.77
2018-09-17T04:18:52.939Z,11.27
2018-09-17T04:22:56.489Z,12.03
2018-09-17T04:26:59.727Z,13.20
2018-09-17T04:31:02.640Z,11.30
2018-09-17T04:35:06.867Z,12.73
2018-09-17T04:39:11.781Z,11.43
2018-09-17T04:43:14.651Z,11.73
2018-09-17T04:47:17.572Z,11.10
2018-09-17T04:51:20.444Z,11.93
2018-09-17T04:55:23.361Z,12.40
2018-09-17T04:59:26.423Z,12.73
2018-09-17T05:03:29.371Z,15.07
2018-09-17T05:07:32.235Z,11.10
2018-09-17T05:11:35.151Z,10.97
2018-09-17T05:15:38.014Z,10.27
2018-09-17T05:19:41.028Z,11.33
2018-09-17T05:23:44.849Z,11.30
2018-09-17T05:27:47.931Z,11.33
2018-09-17T05:31:51.075Z,10.63
2018-09-17T05:35:54.002Z,11.63
2018-09-17T05:39:57.083Z,10.90
2018-09-17T05:44:00.019Z,12.93
2018-09-17T05:48:02.882Z,16.27
2018-09-17T05:52:05.820Z,12.50
2018-09-17T05:56:08.791Z,12.50
2018-09-17T06:00:11.959Z,13.27
2018-09-17T06:04:14.826Z,10.73
2018-09-17T06:08:17.968Z,12.70
2018-09-17T06:12:21.060Z,11.47
2018-09-17T06:16:23.979Z,13.00
2018-09-17T06:20:27.055Z,12.87
2018-09-17T06:24:29.999Z,12.90
2018-09-17T06:28:33.658Z,11.40
2018-09-17T06:32:36.724Z,10.73
2018-09-17T06:36:39.591Z,13.20
2018-09-17T06:40:42.500Z,12.03
2018-09-17T06:44:45.639Z,12.10
2018-09-17T06:48:48.512Z,12.73
2018-09-17T06:52:51.371Z,14.47
2018-09-17T06:56:54.398Z,12.50
2018-09-17T07:00:57.266Z,13.73
2018-09-17T07:05:00.191Z,12.00
2018-09-17T07:09:03.309Z,10.80
2018-09-17T07:13:06.502Z,12.37
2018-09-17T07:17:09.366Z,11.40
2018-09-17T07:21:12.306Z,12.70
2018-09-17T07:25:15.436Z,12.57
2018-09-17T07:29:18.446Z,11.73
2018-09-17T07:33:21.740Z,12.67
2018-09-17T07:37:24.827Z,14.57
2018-09-17T07:41:27.690Z,14.87
2018-09-17T07:45:30.626Z,11.87
2018-09-17T07:49:33.491Z,12.17
2018-09-17T07:53:36.627Z,10.77
2018-09-17T07:57:39.518Z,11.57
2018-09-17T08:01:42.659Z,10.50
2018-09-17T08:05:45.596Z,11.70
2018-09-17T08:09:48.423Z,9.80
2018-09-17T08:13:51.508Z,11.53
2018-09-17T08:17:54.592Z,11.87
2018-09-17T08:21:57.458Z,10.83
2018-09-17T08:26:00.620Z,11.00
2018-09-17T08:30:03.480Z,11.60
2018-09-17T08:34:06.387Z,11.70
2018-09-17T08:38:09.809Z,13.83
2018-09-17T08:42:12.650Z,13.70
2018-09-17T08:46:15.583Z,12.87
2018-09-17T08:50:18.450Z,11.17
2018-09-17T08:54:21.782Z,13.63
2018-09-17T08:58:26.043Z,11.50
2018-09-17T09:02:34.385Z,14.20
2018-09-17T09:06:42.861Z,12.83
2018-09-17T09:10:47.080Z,13.27
2018-09-17T09:14:54.485Z,13.87
2018-09-17T09:19:03.932Z,12.90
2018-09-17T09:23:07.315Z,12.87
2018-09-17T09:27:10.195Z,16.83
2018-09-17T09:31:13.319Z,14.33
2018-09-17T09:35:16.999Z,16.50
2018-09-17T09:39:19.923Z,17.77
2018-09-17T09:43:22.805Z,22.40
2018-09-17T09:47:25.939Z,16.87
2018-09-17T09:51:29.007Z,17.00
2018-09-17T09:55:31.959Z,26.53
2018-09-17T09:59:35.389Z,18.40
2018-09-17T10:03:42.277Z,19.93
2018-09-17T10:07:45.164Z,19.47
2018-09-17T10:11:53.540Z,18.93
2018-09-17T10:15:57.535Z,17.40
2018-09-17T10:20:00.452Z,17.60
2018-09-17T10:24:03.519Z,14.47
2018-09-17T10:28:06.440Z,22.53
2018-09-17T10:32:09.681Z,15.50
2018-09-17T10:36:12.779Z,16.00
2018-09-17T10:40:15.751Z,16.37
2018-09-17T10:44:19.057Z,18.03
2018-09-17T10:48:22.131Z,14.20
2018-09-17T10:52:25.199Z,12.27
2018-09-17T10:56:28.606Z,17.50
2018-09-17T11:00:31.533Z,15.40
2018-09-17T11:04:34.393Z,11.10
2018-09-17T11:08:37.640Z,9.97
2018-09-17T11:12:40.506Z,12.83
2018-09-17T11:16:43.419Z,11.73
2018-09-17T11:20:47.423Z,9.50
2018-09-17T11:24:50.755Z,11.60
2018-09-17T11:28:53.590Z,11.50
2018-09-17T11:32:56.596Z,12.60
2018-09-17T11:36:59.458Z,27.40
2018-09-17T11:41:02.596Z,16.53
2018-09-17T11:45:05.460Z,19.03
2018-09-17T11:49:08.366Z,8.53
2018-09-17T11:53:11.588Z,10.43
2018-09-17T11:57:14.490Z,12.10
2018-09-17T12:01:22.820Z,9.67
2018-09-17T12:05:31.324Z,9.50
2018-09-17T12:09:34.183Z,9.50
2018-09-17T12:13:37.099Z,9.50
2018-09-17T12:17:39.951Z,9.73
2018-09-17T12:21:42.863Z,9.50
2018-09-17T12:25:45.727Z,8.87
2018-09-17T12:29:48.881Z,9.40
2018-09-17T12:33:51.798Z,10.10
2018-09-17T12:37:54.659Z,12.23
2018-09-17T12:41:58.044Z,10.40
2018-09-17T12:46:00.967Z,9.50
2018-09-17T12:50:03.808Z,10.10
2018-09-17T12:54:07.063Z,8.17
2018-09-17T12:58:09.949Z,8.83
2018-09-17T13:02:12.827Z,7.87
2018-09-17T13:10:25.219Z,6.10
2018-09-17T13:14:28.074Z,6.00
2018-09-17T13:18:31.187Z,6.00
2018-09-17T13:22:34.039Z,6.17
2018-09-17T13:26:37.789Z,6.50
2018-09-17T13:30:40.714Z,4.03
2018-09-17T13:34:43.635Z,5.87
2018-09-17T13:38:46.697Z,4.87
2018-09-17T13:42:49.640Z,5.00
2018-09-17T13:46:52.583Z,5.63
2018-09-17T13:50:55.512Z,5.30
2018-09-17T13:54:58.467Z,3.60
2018-09-17T13:59:01.687Z,5.50
2018-09-17T14:03:04.542Z,3.77
2018-09-17T14:07:07.759Z,3.07
2018-09-17T14:11:10.616Z,4.30
2018-09-17T14:15:13.627Z,3.83
2018-09-17T14:19:16.703Z,3.40
2018-09-17T14:23:19.624Z,5.70
2018-09-17T14:27:29.058Z,3.40
2018-09-17T14:31:37.535Z,4.90
2018-09-17T14:35:40.464Z,4.27
2018-09-17T14:39:43.468Z,3.33
2018-09-17T14:43:46.436Z,2.93
2018-09-17T14:47:49.478Z,2.47
2018-09-17T14:51:52.341Z,2.23
2018-09-17T14:55:55.391Z,5.10
2018-09-17T14:59:58.443Z,3.90
2018-09-17T15:04:01.432Z,3.20
2018-09-17T15:08:04.494Z,2.40
2018-09-17T15:12:07.304Z,3.17
2018-09-17T15:16:10.398Z,5.27
2018-09-17T15:20:13.387Z,5.43
2018-09-17T15:24:16.170Z,4.70
2018-09-17T15:28:19.424Z,5.87
2018-09-17T15:32:22.338Z,3.53
2018-09-17T15:36:25.634Z,4.00
2018-09-17T15:40:28.534Z,5.00
2018-09-17T15:44:31.427Z,4.23
2018-09-17T15:48:34.289Z,5.13
2018-09-17T15:52:37.204Z,2.33
2018-09-17T15:56:40.195Z,3.37
2018-09-17T16:00:43.120Z,3.57
2018-09-17T16:04:45.984Z,3.67
2018-09-17T16:08:49.181Z,3.87
2018-09-17T16:12:51.964Z,4.50
2018-09-17T16:16:55.128Z,8.17
2018-09-17T16:20:58.211Z,3.87
2018-09-17T16:25:01.148Z,5.70
2018-09-17T16:29:04.091Z,4.13
2018-09-17T16:33:07.065Z,2.70
2018-09-17T16:37:10.108Z,5.10
2018-09-17T16:41:13.047Z,7.57
2018-09-17T16:45:15.906Z,3.93
2018-09-17T16:49:18.798Z,4.33
2018-09-17T16:53:21.712Z,5.10
2018-09-17T16:57:24.927Z,4.60
2018-09-17T17:01:28.003Z,4.00
2018-09-17T17:05:31.049Z,3.50
2018-09-17T17:09:34.125Z,3.47
2018-09-17T17:13:37.041Z,3.67
2018-09-17T17:17:39.907Z,2.60
2018-09-17T17:21:43.055Z,3.70
2018-09-17T17:25:46.124Z,3.90
2018-09-17T17:29:49.303Z,5.90
2018-09-17T17:33:52.629Z,2.70
2018-09-17T17:37:55.471Z,5.27
2018-09-17T17:41:58.330Z,4.73
2018-09-17T17:46:01.587Z,4.63
2018-09-17T17:50:04.534Z,3.70
2018-09-17T17:54:07.452Z,7.40
2018-09-17T17:58:10.325Z,3.40
2018-09-17T18:02:13.226Z,4.60
2018-09-17T18:06:16.103Z,7.47
2018-09-17T18:10:19.241Z,5.73
2018-09-17T18:14:22.319Z,4.93
2018-09-17T18:18:31.843Z,7.30
2018-09-17T18:22:34.896Z,8.50
2018-09-17T18:26:37.816Z,6.73
2018-09-17T18:30:40.902Z,8.77
2018-09-17T18:34:44.544Z,5.77
2018-09-17T18:38:47.486Z,9.80
2018-09-17T18:42:50.763Z,6.27
2018-09-17T18:46:53.550Z,5.60
2018-09-17T18:50:56.551Z,6.03
2018-09-17T18:54:59.402Z,7.83
2018-09-17T18:59:02.535Z,5.77
2018-09-17T19:03:05.546Z,5.93
2018-09-17T19:07:08.653Z,7.17
2018-09-17T19:11:11.727Z,6.70
2018-09-17T19:15:20.173Z,7.10
2018-09-17T19:19:23.051Z,6.10
2018-09-17T19:23:32.499Z,10.03
2018-09-17T19:27:40.959Z,7.80
2018-09-17T19:31:44.178Z,6.90
2018-09-17T19:35:47.070Z,7.07
2018-09-17T19:39:55.825Z,11.50
2018-09-17T19:43:58.991Z,7.10
2018-09-17T19:48:01.829Z,10.40
2018-09-17T19:52:10.364Z,7.83
2018-09-17T19:56:13.567Z,7.50
2018-09-17T20:00:16.669Z,7.10
2018-09-17T20:04:25.227Z,11.90
2018-09-17T20:08:28.551Z,8.33
2018-09-17T20:12:31.406Z,8.47
2018-09-17T20:16:34.375Z,10.03
2018-09-17T20:20:37.334Z,7.50
2018-09-17T20:24:41.507Z,9.63
2018-09-17T20:28:44.591Z,9.73
2018-09-17T20:32:47.511Z,8.90
2018-09-17T20:36:50.600Z,9.07
2018-09-17T20:40:53.717Z,12.23
2018-09-17T20:44:56.627Z,9.37
2018-09-17T20:48:59.816Z,9.33
2018-09-17T20:53:02.658Z,11.80
2018-09-17T20:57:05.596Z,10.00
2018-09-17T21:01:08.644Z,10.87
2018-09-17T21:05:11.407Z,14.87
2018-09-17T21:09:14.714Z,10.83
2018-09-17T21:13:17.705Z,9.97
2018-09-17T21:17:20.751Z,10.00
2018-09-17T21:21:23.703Z,12.80
2018-09-17T21:25:26.671Z,11.43
2018-09-17T21:29:29.519Z,11.90
2018-09-17T21:33:32.391Z,12.33
2018-09-17T21:37:35.325Z,11.73
2018-09-17T21:41:38.303Z,11.47
2018-09-17T21:45:41.222Z,10.93
2018-09-17T21:49:44.318Z,12.13
2018-09-17T21:53:47.247Z,11.60
2018-09-17T21:57:50.356Z,13.53
2018-09-17T22:01:53.326Z,14.70
2018-09-17T22:05:56.431Z,12.53
2018-09-17T22:09:59.502Z,11.43
2018-09-17T22:14:02.384Z,12.47
2018-09-17T22:18:05.293Z,12.10
2018-09-17T22:22:08.367Z,12.57
2018-09-17T22:26:11.315Z,12.47
2018-09-17T22:30:14.200Z,12.57
2018-09-17T22:34:17.139Z,13.20
2018-09-17T22:38:20.220Z,12.97
2018-09-17T22:42:23.424Z,19.83
2018-09-17T22:46:26.519Z,12.93
2018-09-17T22:50:29.659Z,15.43
2018-09-17T22:54:32.537Z,14.00
2018-09-17T22:58:35.466Z,15.83
2018-09-17T23:02:38.372Z,13.80
2018-09-17T23:06:41.275Z,14.83
2018-09-17T23:10:44.257Z,17.67
2018-09-17T23:14:47.158Z,17.07
2018-09-17T23:18:50.252Z,16.73
2018-09-17T23:22:53.172Z,17.27
2018-09-17T23:26:56.263Z,19.13
2018-09-17T23:30:59.427Z,19.97
2018-09-17T23:35:02.309Z,19.10
2018-09-17T23:39:08.377Z,19.80
2018-09-17T23:43:11.453Z,19.30
2018-09-17T23:47:14.372Z,19.27
2018-09-17T23:51:17.241Z,18.70
2018-09-17T23:55:20.168Z,19.03
2018-09-17T23:59:23.042Z,19.47
